createdAt,value
2022-08-03T00:01:37.227Z,22.07
2022-08-03T00:04:40.189Z,22.07
2022-08-03T00:07:42.778Z,22.00
2022-08-03T00:10:47.816Z,21.97
2022-08-03T00:13:50.730Z,21.96
2022-08-03T00:16:53.607Z,21.92
2022-08-03T00:19:56.157Z,21.93
2022-08-03T00:22:59.073Z,21.95
2022-08-03T00:26:01.745Z,21.80
2022-08-03T00:29:04.598Z,21.92
2022-08-03T00:32:07.119Z,21.91
2022-08-03T00:35:32.452Z,21.91
2022-08-03T00:38:36.340Z,21.89
2022-08-03T00:41:39.254Z,21.83
2022-08-03T00:44:43.181Z,21.78
2022-08-03T00:47:46.326Z,21.77
2022-08-03T00:50:52.145Z,21.73
2022-08-03T00:53:57.192Z,21.77
2022-08-03T00:57:00.590Z,21.77
2022-08-03T01:00:08.493Z,21.72
2022-08-03T01:03:12.171Z,21.71
2022-08-03T01:06:37.994Z,21.60
2022-08-03T01:10:02.383Z,21.54
2022-08-03T01:14:00.289Z,21.65
2022-08-03T01:17:04.242Z,21.64
2022-08-03T01:20:13.770Z,21.60
2022-08-03T01:23:19.306Z,21.58
2022-08-03T01:27:03.342Z,21.55
2022-08-03T01:30:08.227Z,21.51
2022-08-03T01:33:16.132Z,21.50
2022-08-03T01:36:29.638Z,21.47
2022-08-03T01:39:33.253Z,21.39
2022-08-03T01:42:36.951Z,21.35
2022-08-03T01:45:40.528Z,21.22
2022-08-03T01:48:45.395Z,21.19
2022-08-03T01:52:03.352Z,21.14
2022-08-03T01:55:09.548Z,21.11
2022-08-03T01:58:15.913Z,21.06
2022-08-03T02:01:21.173Z,21.01
2022-08-03T02:04:24.828Z,20.92
2022-08-03T02:07:29.328Z,21.02
2022-08-03T02:10:35.416Z,20.95
2022-08-03T02:13:39.806Z,20.94
2022-08-03T02:16:43.934Z,21.01
2022-08-03T02:19:47.499Z,20.98
2022-08-03T02:22:50.834Z,20.95
2022-08-03T02:26:01.886Z,20.88
2022-08-03T02:29:14.522Z,20.82
2022-08-03T02:32:20.960Z,20.78
2022-08-03T02:35:26.104Z,20.69
2022-08-03T02:38:33.593Z,20.79
2022-08-03T02:41:50.258Z,20.80
2022-08-03T02:44:56.677Z,20.80
2022-08-03T02:48:03.972Z,20.75
2022-08-03T02:51:07.026Z,20.69
2022-08-03T02:54:11.062Z,20.71
2022-08-03T02:57:14.337Z,20.69
2022-08-03T03:00:27.253Z,20.64
2022-08-03T03:03:33.179Z,20.60
2022-08-03T03:06:43.533Z,20.60
2022-08-03T03:09:50.294Z,20.55
2022-08-03T03:12:56.319Z,20.62
2022-08-03T03:16:01.660Z,20.58
2022-08-03T03:19:04.791Z,20.52
2022-08-03T03:22:09.176Z,20.47
2022-08-03T03:25:12.087Z,20.23
2022-08-03T03:28:14.727Z,20.37
2022-08-03T03:31:17.732Z,20.35
2022-08-03T03:34:20.667Z,20.25
2022-08-03T03:37:24.165Z,20.07
2022-08-03T03:40:27.487Z,20.27
2022-08-03T03:43:31.577Z,20.25
2022-08-03T03:46:34.302Z,20.36
2022-08-03T03:49:37.447Z,20.39
2022-08-03T03:52:41.082Z,20.36
2022-08-03T03:55:59.388Z,20.53
2022-08-03T03:59:05.334Z,20.49
2022-08-03T04:02:09.350Z,20.47
2022-08-03T04:05:31.326Z,20.52
2022-08-03T04:08:52.773Z,20.51
2022-08-03T04:11:59.226Z,20.53
2022-08-03T04:15:03.612Z,20.48
2022-08-03T04:18:10.219Z,20.49
2022-08-03T04:21:13.356Z,20.56
2022-08-03T04:24:16.390Z,20.52
2022-08-03T04:27:22.394Z,20.57
2022-08-03T04:30:27.843Z,20.58
2022-08-03T04:33:34.909Z,20.57
2022-08-03T04:36:43.002Z,20.56
2022-08-03T04:39:49.438Z,20.56
2022-08-03T04:42:53.958Z,20.58
2022-08-03T04:45:57.072Z,20.58
2022-08-03T04:49:00.715Z,20.54
2022-08-03T04:52:05.200Z,20.51
2022-08-03T04:55:08.700Z,20.60
2022-08-03T04:58:12.645Z,20.57
2022-08-03T05:01:16.602Z,20.65
2022-08-03T05:04:20.548Z,20.63
2022-08-03T05:07:25.124Z,20.70
2022-08-03T05:10:29.705Z,20.74
2022-08-03T05:16:36.669Z,21.04
2022-08-03T05:19:39.568Z,21.03
2022-08-03T05:22:42.184Z,21.12
2022-08-03T05:25:49.718Z,21.13
2022-08-03T05:28:53.545Z,21.22
2022-08-03T05:31:56.479Z,21.32
2022-08-03T05:34:59.633Z,21.36
2022-08-03T05:38:23.889Z,21.55
2022-08-03T05:41:37.286Z,21.71
2022-08-03T05:44:40.481Z,21.81
2022-08-03T05:47:44.387Z,21.97
2022-08-03T05:50:47.479Z,22.11
2022-08-03T05:53:50.078Z,22.21
2022-08-03T05:56:52.974Z,22.36
2022-08-03T05:59:58.516Z,22.51
2022-08-03T06:03:02.433Z,22.60
2022-08-03T06:06:05.439Z,22.69
2022-08-03T06:09:08.065Z,22.76
2022-08-03T06:12:14.082Z,22.86
2022-08-03T06:15:18.737Z,23.05
2022-08-03T06:18:21.762Z,23.14
2022-08-03T06:21:24.378Z,23.16
2022-08-03T06:24:30.190Z,23.39
2022-08-03T06:27:37.359Z,23.51
2022-08-03T06:30:41.610Z,23.70
2022-08-03T06:34:29.075Z,23.87
2022-08-03T06:37:07.102Z,24.05
2022-08-03T06:40:11.733Z,23.96
2022-08-03T06:43:17.067Z,24.15
2022-08-03T06:46:20.133Z,24.13
2022-08-03T06:49:23.067Z,24.05
2022-08-03T06:52:37.704Z,24.13
2022-08-03T06:55:42.486Z,24.25
2022-08-03T06:58:47.018Z,24.28
2022-08-03T07:01:50.134Z,24.34
2022-08-03T07:04:52.737Z,24.37
2022-08-03T07:07:57.734Z,24.45
2022-08-03T07:11:00.275Z,24.45
2022-08-03T07:14:03.128Z,24.41
2022-08-03T07:17:12.018Z,24.47
2022-08-03T07:20:15.340Z,24.35
2022-08-03T07:23:19.167Z,24.41
2022-08-03T07:26:22.326Z,24.36
2022-08-03T07:29:25.091Z,24.32
2022-08-03T07:32:31.326Z,24.44
2022-08-03T07:35:34.204Z,24.48
2022-08-03T07:38:37.188Z,24.49
2022-08-03T07:41:39.762Z,24.75
2022-08-03T07:44:45.520Z,24.94
2022-08-03T07:47:53.684Z,25.46
2022-08-03T07:50:57.128Z,25.41
2022-08-03T07:54:00.960Z,25.42
2022-08-03T07:57:04.135Z,25.55
2022-08-03T08:00:12.468Z,26.21
2022-08-03T08:03:16.156Z,26.65
2022-08-03T08:06:18.780Z,26.81
2022-08-03T08:09:21.642Z,26.75
2022-08-03T08:12:24.212Z,26.85
2022-08-03T08:15:27.477Z,26.91
2022-08-03T08:18:30.097Z,26.56
2022-08-03T08:21:53.714Z,26.73
2022-08-03T08:24:56.575Z,26.94
2022-08-03T08:28:30.807Z,27.08
2022-08-03T08:31:27.042Z,27.20
2022-08-03T08:34:29.921Z,26.88
2022-08-03T08:37:35.237Z,27.06
2022-08-03T08:40:39.654Z,27.76
2022-08-03T08:43:42.696Z,27.65
2022-08-03T08:46:45.819Z,28.38
2022-08-03T08:50:08.590Z,28.95
2022-08-03T08:53:17.542Z,28.89
2022-08-03T08:56:25.552Z,29.44
2022-08-03T08:59:47.730Z,29.62
2022-08-03T09:02:51.330Z,29.79
2022-08-03T09:05:56.067Z,29.60
2022-08-03T09:08:59.401Z,30.20
2022-08-03T09:12:27.192Z,30.41
2022-08-03T09:15:34.694Z,30.58
2022-08-03T09:18:38.380Z,30.40
2022-08-03T09:21:41.193Z,30.65
2022-08-03T09:25:21.995Z,31.01
2022-08-03T09:28:52.522Z,31.18
2022-08-03T09:31:46.479Z,30.94
2022-08-03T09:34:50.461Z,31.56
2022-08-03T09:38:14.085Z,31.98
2022-08-03T09:41:19.887Z,32.26
2022-08-03T09:44:34.891Z,32.09
2022-08-03T09:47:37.465Z,32.73
2022-08-03T09:51:12.779Z,32.97
2022-08-03T09:54:29.196Z,33.13
2022-08-03T09:57:32.465Z,33.46
2022-08-03T10:00:54.088Z,33.49
2022-08-03T10:04:03.900Z,33.38
2022-08-03T10:07:09.567Z,33.80
2022-08-03T10:10:30.838Z,34.24
2022-08-03T10:13:34.689Z,34.11
2022-08-03T10:16:39.327Z,33.94
2022-08-03T10:19:42.352Z,34.36
2022-08-03T10:22:45.419Z,34.30
2022-08-03T10:25:50.276Z,34.27
2022-08-03T10:28:54.418Z,34.31
2022-08-03T10:31:59.511Z,34.77
2022-08-03T10:35:20.890Z,34.72
2022-08-03T10:38:30.538Z,34.33
2022-08-03T10:41:38.328Z,34.23
2022-08-03T10:44:41.407Z,34.68
2022-08-03T10:47:44.649Z,34.38
2022-08-03T10:50:49.300Z,34.98
2022-08-03T10:53:55.357Z,35.19
2022-08-03T10:57:17.265Z,34.67
2022-08-03T11:00:26.797Z,35.33
2022-08-03T11:03:33.130Z,35.39
2022-08-03T11:06:37.611Z,35.26
2022-08-03T11:09:45.372Z,35.33
2022-08-03T11:12:48.304Z,34.62
2022-08-03T11:15:53.200Z,34.41
2022-08-03T11:19:06.137Z,35.17
2022-08-03T11:22:08.714Z,35.53
2022-08-03T11:25:53.645Z,35.60
2022-08-03T11:28:35.931Z,36.16
2022-08-03T11:31:49.842Z,35.72
2022-08-03T11:35:21.082Z,35.06
2022-08-03T11:38:24.737Z,34.90
2022-08-03T11:41:34.064Z,34.34
2022-08-03T11:44:48.172Z,34.22
2022-08-03T11:47:58.588Z,33.63
2022-08-03T11:51:03.060Z,33.87
2022-08-03T11:54:06.842Z,35.13
2022-08-03T11:57:10.131Z,35.33
2022-08-03T12:00:27.942Z,34.99
2022-08-03T12:03:33.782Z,33.77
2022-08-03T12:06:55.194Z,33.34
2022-08-03T12:10:07.907Z,34.16
2022-08-03T12:14:08.861Z,35.21
2022-08-03T12:16:33.579Z,35.49
2022-08-03T12:19:43.362Z,35.62
2022-08-03T12:22:46.170Z,35.90
2022-08-03T12:25:49.528Z,35.99
2022-08-03T12:28:52.847Z,36.08
2022-08-03T12:31:55.958Z,36.34
2022-08-03T12:35:01.713Z,36.40
2022-08-03T12:38:06.308Z,36.62
2022-08-03T12:41:16.598Z,36.98
2022-08-03T12:44:28.979Z,36.81
2022-08-03T12:47:59.918Z,36.31
2022-08-03T12:51:10.309Z,36.72
2022-08-03T12:54:18.309Z,36.57
2022-08-03T12:57:41.605Z,36.61
2022-08-03T13:00:56.072Z,36.76
2022-08-03T13:03:58.598Z,36.85
2022-08-03T13:07:12.619Z,37.09
2022-08-03T13:10:32.424Z,36.31
2022-08-03T13:13:39.587Z,36.46
2022-08-03T13:16:42.189Z,36.39
2022-08-03T13:19:45.773Z,36.46
2022-08-03T13:22:48.711Z,36.61
2022-08-03T13:25:55.575Z,35.92
2022-08-03T13:28:59.111Z,36.00
2022-08-03T13:32:03.181Z,35.93
2022-08-03T13:35:06.999Z,35.90
2022-08-03T13:38:09.972Z,35.80
2022-08-03T13:41:15.522Z,35.59
2022-08-03T13:44:28.967Z,35.40
2022-08-03T13:47:32.460Z,34.54
2022-08-03T13:50:39.777Z,34.32
2022-08-03T13:53:45.175Z,34.06
2022-08-03T13:56:52.741Z,34.03
2022-08-03T13:59:55.664Z,33.84
2022-08-03T14:03:06.598Z,33.87
2022-08-03T14:06:10.175Z,33.98
2022-08-03T14:09:13.939Z,33.63
2022-08-03T14:12:16.848Z,33.39
2022-08-03T14:15:19.370Z,33.16
2022-08-03T14:18:28.492Z,32.91
2022-08-03T14:21:34.127Z,32.78
2022-08-03T14:24:36.972Z,32.71
2022-08-03T14:27:39.527Z,32.78
2022-08-03T14:30:44.428Z,32.85
2022-08-03T14:33:46.983Z,32.38
2022-08-03T14:36:49.920Z,32.69
2022-08-03T14:40:00.346Z,33.01
2022-08-03T14:43:03.809Z,33.09
2022-08-03T14:46:06.991Z,33.09
2022-08-03T14:50:33.511Z,33.27
2022-08-03T14:52:32.984Z,33.41
2022-08-03T14:55:38.201Z,33.27
2022-08-03T14:58:41.721Z,33.09
2022-08-03T15:02:04.849Z,33.17
2022-08-03T15:05:08.971Z,33.24
2022-08-03T15:08:11.901Z,33.03
2022-08-03T15:11:14.863Z,32.93
2022-08-03T15:14:17.748Z,32.63
2022-08-03T15:17:25.017Z,32.79
2022-08-03T15:20:43.442Z,32.84
2022-08-03T15:23:46.944Z,32.80
2022-08-03T15:26:51.517Z,32.75
2022-08-03T15:30:05.104Z,32.73
2022-08-03T15:33:10.961Z,32.58
2022-08-03T15:36:13.532Z,32.54
2022-08-03T15:39:16.479Z,32.53
2022-08-03T15:42:19.067Z,32.32
2022-08-03T15:45:23.885Z,32.23
2022-08-03T15:48:30.591Z,32.18
2022-08-03T15:51:33.517Z,32.11
2022-08-03T15:54:36.122Z,32.18
2022-08-03T15:59:09.239Z,32.13
2022-08-03T16:01:02.903Z,32.05
2022-08-03T16:04:05.801Z,31.91
2022-08-03T16:07:08.934Z,31.86
2022-08-03T16:10:18.050Z,31.67
2022-08-03T16:13:20.695Z,31.55
2022-08-03T16:16:23.671Z,31.34
2022-08-03T16:19:26.282Z,31.24
2022-08-03T16:22:29.412Z,31.10
2022-08-03T16:25:32.872Z,31.00
2022-08-03T16:28:38.716Z,30.78
2022-08-03T16:31:41.452Z,30.70
2022-08-03T16:34:54.387Z,30.59
2022-08-03T16:37:57.388Z,30.54
2022-08-03T16:41:00.583Z,30.51
2022-08-03T16:44:06.653Z,30.41
2022-08-03T16:47:21.690Z,30.39
2022-08-03T16:50:24.903Z,30.36
2022-08-03T16:53:33.512Z,30.32
2022-08-03T16:56:50.303Z,30.29
2022-08-03T16:59:53.716Z,30.19
2022-08-03T17:02:58.837Z,30.08
2022-08-03T17:06:01.801Z,29.99
2022-08-03T17:09:10.188Z,29.93
2022-08-03T17:12:13.553Z,29.98
2022-08-03T17:15:16.074Z,29.99
2022-08-03T17:18:19.335Z,29.90
2022-08-03T17:21:30.975Z,29.88
2022-08-03T17:24:41.306Z,29.76
2022-08-03T17:28:51.370Z,29.75
2022-08-03T17:31:23.097Z,29.66
2022-08-03T17:34:33.935Z,29.61
2022-08-03T17:37:58.387Z,29.52
2022-08-03T17:41:00.656Z,29.45
2022-08-03T17:44:30.124Z,29.45
2022-08-03T17:47:43.259Z,29.34
2022-08-03T17:50:51.648Z,29.21
2022-08-03T17:54:18.644Z,29.09
2022-08-03T17:57:27.774Z,29.01
2022-08-03T18:00:51.575Z,28.88
2022-08-03T18:03:59.269Z,28.83
2022-08-03T18:07:11.824Z,28.80
2022-08-03T18:10:23.765Z,28.74
2022-08-03T18:13:30.490Z,28.62
2022-08-03T18:16:44.634Z,28.52
2022-08-03T18:20:04.297Z,28.39
2022-08-03T18:23:24.970Z,28.33
2022-08-03T18:26:37.614Z,28.17
2022-08-03T18:29:43.122Z,28.05
2022-08-03T18:33:00.765Z,27.92
2022-08-03T18:36:10.460Z,27.86
2022-08-03T18:39:13.822Z,27.76
2022-08-03T18:42:19.269Z,27.64
2022-08-03T18:45:56.416Z,27.61
2022-08-03T18:49:11.516Z,27.59
2022-08-03T18:52:21.735Z,27.56
2022-08-03T18:55:33.522Z,27.40
2022-08-03T18:58:51.487Z,27.35
2022-08-03T19:02:21.366Z,27.25
2022-08-03T19:06:02.417Z,27.19
2022-08-03T19:09:04.551Z,27.12
2022-08-03T19:12:30.617Z,27.01
2022-08-03T19:15:51.031Z,26.91
2022-08-03T19:18:54.861Z,26.84
2022-08-03T19:21:58.395Z,26.60
2022-08-03T19:25:02.446Z,26.65
2022-08-03T19:28:07.264Z,26.60
2022-08-03T19:31:11.793Z,26.56
2022-08-03T19:34:18.793Z,26.48
2022-08-03T19:37:22.165Z,26.48
2022-08-03T19:40:27.851Z,26.50
2022-08-03T19:43:52.993Z,26.38
2022-08-03T19:47:34.188Z,26.39
2022-08-03T19:50:44.477Z,26.31
2022-08-03T19:53:50.152Z,26.09
2022-08-03T19:56:54.504Z,26.11
2022-08-03T19:59:59.880Z,26.06
2022-08-03T20:03:22.008Z,26.07
2022-08-03T20:06:26.446Z,26.02
2022-08-03T20:09:30.621Z,25.91
2022-08-03T20:12:38.749Z,25.88
2022-08-03T20:15:41.915Z,25.83
2022-08-03T20:18:45.146Z,25.78
2022-08-03T20:21:49.052Z,25.77
2022-08-03T20:24:54.394Z,25.74
2022-08-03T20:28:20.567Z,25.66
2022-08-03T20:31:32.448Z,25.62
2022-08-03T20:34:39.117Z,25.61
2022-08-03T20:37:41.961Z,25.58
2022-08-03T20:40:45.416Z,25.49
2022-08-03T20:43:49.287Z,25.47
2022-08-03T20:47:00.568Z,25.42
2022-08-03T20:50:07.552Z,25.41
2022-08-03T20:53:12.082Z,25.38
2022-08-03T20:56:15.651Z,25.33
2022-08-03T20:59:19.169Z,25.26
2022-08-03T21:02:30.251Z,25.35
2022-08-03T21:05:48.374Z,25.32
2022-08-03T21:09:04.071Z,25.27
2022-08-03T21:12:08.358Z,25.30
2022-08-03T21:16:06.756Z,25.19
2022-08-03T21:18:40.537Z,25.25
2022-08-03T21:21:44.949Z,25.22
2022-08-03T21:24:52.815Z,25.15
2022-08-03T21:27:59.817Z,25.14
2022-08-03T21:31:02.826Z,25.08
2022-08-03T21:34:05.880Z,25.00
2022-08-03T21:37:08.492Z,24.99
2022-08-03T21:40:14.136Z,25.06
2022-08-03T21:43:16.788Z,25.01
2022-08-03T21:46:20.363Z,24.98
2022-08-03T21:50:06.720Z,24.99
2022-08-03T21:52:48.351Z,24.99
2022-08-03T21:55:55.210Z,24.91
2022-08-03T21:59:05.850Z,24.95
2022-08-03T22:02:22.706Z,24.91
2022-08-03T22:05:42.402Z,24.86
2022-08-03T22:08:48.212Z,24.86
2022-08-03T22:11:54.163Z,24.85
2022-08-03T22:15:01.317Z,24.84
2022-08-03T22:18:05.337Z,24.81
2022-08-03T22:21:10.183Z,24.78
2022-08-03T22:24:14.026Z,24.71
2022-08-03T22:27:33.264Z,24.64
2022-08-03T22:30:37.735Z,24.61
2022-08-03T22:33:40.522Z,24.61
2022-08-03T22:36:43.391Z,24.58
2022-08-03T22:39:46.098Z,24.53
2022-08-03T22:42:52.575Z,24.53
2022-08-03T22:46:10.338Z,24.50
2022-08-03T22:49:16.675Z,24.38
2022-08-03T22:52:19.987Z,24.34
2022-08-03T22:55:24.825Z,24.29
2022-08-03T22:58:27.821Z,24.25
2022-08-03T23:01:33.229Z,24.17
2022-08-03T23:04:39.307Z,24.11
2022-08-03T23:07:44.159Z,24.05
2022-08-03T23:10:47.778Z,24.02
2022-08-03T23:13:53.810Z,23.96
2022-08-03T23:16:56.854Z,23.89
2022-08-03T23:20:07.350Z,23.84
2022-08-03T23:23:10.486Z,23.80
2022-08-03T23:26:13.779Z,23.74
2022-08-03T23:29:17.300Z,23.70
2022-08-03T23:32:20.928Z,23.71
2022-08-03T23:36:29.054Z,23.69
2022-08-03T23:39:05.918Z,23.64
2022-08-03T23:42:09.134Z,23.56
2022-08-03T23:45:12.234Z,23.53
2022-08-03T23:48:15.053Z,23.47
2022-08-03T23:51:50.921Z,23.48
2022-08-03T23:55:01.686Z,23.45
2022-08-03T23:58:15.580Z,23.43
